Time;durP1;ratioP1;P1;durP2;ratioP2;P2;SDS_P1;SDS_P2;PMS_P1;PMS_P2;Temp;Humidity;BMP_temperature;BMP_pressure;BME280_temperature;BME280_humidity;BME280_pressure;Samples;Min_cycle;Max_cycle;Signal;HPM_P1;HPM_P2
2022/05/16 00:01:19;;;;;;;;;;;13.70;99.90;;;;;;4160686;28;20036;-39
2022/05/16 00:03:22;;;;;;;3.30;2.08;;;13.70;99.90;;;;;;4160374;28;19921;-39
2022/05/16 00:05:24;;;;;;;2.65;2.55;;;13.60;99.90;;;;;;4160234;28;20041;-40
2022/05/16 00:07:26;;;;;;;2.95;2.75;;;13.60;99.90;;;;;;4160397;28;20527;-40
2022/05/16 00:09:28;;;;;;;2.92;2.30;;;13.60;99.90;;;;;;4160856;28;20126;-39
2022/05/16 00:11:31;;;;;;;2.35;2.25;;;13.40;99.90;;;;;;4160018;28;20438;-40
2022/05/16 00:13:33;;;;;;;2.83;2.63;;;13.40;99.90;;;;;;4160499;28;20041;-40
2022/05/16 00:15:36;;;;;;;6.07;3.00;;;13.30;99.90;;;;;;4160215;28;20727;-39
2022/05/16 00:17:38;;;;;;;3.03;2.83;;;13.30;99.90;;;;;;4159705;28;20052;-39
2022/05/16 00:19:41;;;;;;;6.38;3.03;;;13.20;99.90;;;;;;4160395;28;20042;-39
2022/05/16 00:21:44;;;;;;;2.58;2.47;;;13.20;99.90;;;;;;4159843;28;20037;-39
2022/05/16 00:23:47;;;;;;;3.55;2.97;;;13.20;99.90;;;;;;4160020;28;20076;-39
2022/05/16 00:25:49;;;;;;;3.50;2.92;;;13.20;99.90;;;;;;4160405;28;20847;-39
2022/05/16 00:27:51;;;;;;;4.25;4.03;;;13.20;99.90;;;;;;4159978;28;20046;-40
2022/05/16 00:29:53;;;;;;;3.03;2.92;;;13.20;99.90;;;;;;4159790;28;20868;-40
2022/05/16 00:31:56;;;;;;;4.85;3.67;;;13.20;99.90;;;;;;4160310;28;20104;-39
2022/05/16 00:33:58;;;;;;;2.55;2.38;;;13.30;99.90;;;;;;4160244;28;20048;-40
2022/05/16 00:36:00;;;;;;;3.63;3.42;;;13.10;99.90;;;;;;4160013;28;20091;-40
2022/05/16 00:38:03;;;;;;;3.75;2.60;;;13.00;99.90;;;;;;4159888;28;20033;-40
2022/05/16 00:40:07;;;;;;;3.13;2.97;;;12.80;99.90;;;;;;4159628;28;20140;-40
2022/05/16 00:42:12;;;;;;;3.47;3.17;;;12.80;99.90;;;;;;4160169;28;20072;-41
2022/05/16 00:44:14;;;;;;;3.28;3.13;;;12.90;99.90;;;;;;4159832;28;20038;-40
2022/05/16 00:46:18;;;;;;;2.88;2.78;;;12.90;99.90;;;;;;4154986;28;20052;-39
2022/05/16 00:48:20;;;;;;;2.72;2.45;;;12.90;99.90;;;;;;4143648;28;20115;-40
2022/05/16 00:50:23;;;;;;;3.60;3.35;;;13.00;99.90;;;;;;4156131;28;20512;-40
2022/05/16 00:52:30;;;;;;;;;;;13.10;99.90;;;;;;4160011;28;20047;-39
2022/05/16 00:54:39;;;;;;;2.85;2.70;;;13.20;99.90;;;;;;4160012;28;19921;-39
2022/05/16 00:56:42;;;;;;;3.40;3.30;;;13.10;99.90;;;;;;4162326;28;20128;-40
2022/05/16 00:58:46;;;;;;;3.00;1.92;;;13.00;99.90;;;;;;4161479;28;20484;-39
2022/05/16 01:00:48;;;;;;;4.00;3.25;;;12.90;99.90;;;;;;4162774;28;20497;-41
2022/05/16 01:05:20;;;;;;;3.42;3.22;;;12.80;99.90;;;;;;4162753;28;20140;-40
2022/05/16 01:07:32;;;;;;;3.55;2.63;;;12.90;99.90;;;;;;4162887;28;20500;-40
2022/05/16 01:09:34;;;;;;;2.65;2.45;;;12.90;99.90;;;;;;4162521;28;20049;-40
2022/05/16 01:11:38;;;;;;;3.28;3.00;;;13.00;99.90;;;;;;4162465;28;20459;-39
2022/05/16 01:13:40;;;;;;;2.60;2.50;;;12.70;99.90;;;;;;4162918;28;20124;-40
2022/05/16 01:15:47;;;;;;;2.85;2.75;;;12.60;99.90;;;;;;4162550;28;20076;-39
2022/05/16 01:17:50;;;;;;;3.03;2.83;;;12.40;99.90;;;;;;4162553;28;20102;-40
2022/05/16 01:19:52;;;;;;;2.65;2.45;;;12.30;99.90;;;;;;4162723;28;20091;-39
2022/05/16 01:21:58;;;;;;;;;;;12.20;99.90;;;;;;4162973;28;20409;-40
2022/05/16 01:24:11;;;;;;;3.63;3.17;;;12.20;99.90;;;;;;4162501;28;19927;-41
2022/05/16 01:26:21;;;;;;;2.92;2.83;;;12.10;99.90;;;;;;4162735;28;20045;-39
2022/05/16 01:28:25;;;;;;;5.07;2.78;;;12.20;99.90;;;;;;4162503;28;20412;-40
2022/05/16 01:30:32;;;;;;;3.60;3.33;;;12.30;99.90;;;;;;4162385;28;20045;-39
2022/05/16 01:32:34;;;;;;;2.75;2.58;;;12.30;99.90;;;;;;4162648;28;20107;-39
2022/05/16 01:34:37;;;;;;;4.00;2.33;;;12.30;99.90;;;;;;4162172;28;20499;-39
2022/05/16 01:36:40;;;;;;;3.65;3.35;;;12.40;99.90;;;;;;4162341;28;20067;-39
2022/05/16 01:38:42;;;;;;;5.55;2.72;;;12.40;99.90;;;;;;4145957;28;20686;-40
2022/05/16 01:40:51;;;;;;;3.17;2.90;;;12.40;99.90;;;;;;4152869;28;20053;-41
2022/05/16 01:42:53;;;;;;;3.42;3.20;;;12.40;99.90;;;;;;4162306;28;20481;-40
2022/05/16 01:44:55;;;;;;;3.00;2.65;;;12.30;99.90;;;;;;4161979;28;20088;-40
2022/05/16 01:47:00;;;;;;;2.75;2.60;;;12.20;99.90;;;;;;4162296;28;20107;-39
2022/05/16 01:49:04;;;;;;;3.30;2.65;;;12.20;99.90;;;;;;4162079;28;20519;-40
2022/05/16 01:51:09;;;;;;;4.18;2.78;;;12.20;99.90;;;;;;4162019;28;20072;-39
2022/05/16 01:53:13;;;;;;;3.13;3.03;;;12.20;99.90;;;;;;4162211;28;20041;-40
2022/05/16 01:55:16;;;;;;;3.20;3.00;;;12.20;99.90;;;;;;4162248;28;20041;-40
2022/05/16 01:57:19;;;;;;;3.17;2.97;;;12.20;99.90;;;;;;4162001;28;20099;-40
2022/05/16 01:59:21;;;;;;;3.58;3.15;;;12.10;99.90;;;;;;4162298;28;20038;-39
2022/05/16 02:01:24;;;;;;;3.13;2.88;;;11.90;99.90;;;;;;4161979;28;20041;-40
2022/05/16 02:03:26;;;;;;;2.55;2.10;;;11.90;99.90;;;;;;4162006;28;20033;-40
2022/05/16 02:05:29;;;;;;;;;;;12.00;99.90;;;;;;4162294;28;20042;-39
2022/05/16 02:07:31;;;;;;;3.15;2.90;;;12.00;99.90;;;;;;4160231;28;19929;-39
2022/05/16 02:09:34;;;;;;;3.65;3.47;;;12.00;99.90;;;;;;4161886;28;20406;-40
2022/05/16 02:11:36;;;;;;;3.35;3.17;;;12.10;99.90;;;;;;4161467;28;20041;-40
2022/05/16 02:13:40;;;;;;;3.47;3.17;;;12.00;99.90;;;;;;4162094;28;20045;-41
2022/05/16 02:15:44;;;;;;;2.70;2.53;;;11.80;99.90;;;;;;4161995;28;20091;-40
2022/05/16 02:17:46;;;;;;;2.85;2.55;;;11.80;99.90;;;;;;4161385;28;20394;-39
2022/05/16 02:19:48;;;;;;;3.10;2.90;;;11.80;99.90;;;;;;4161931;28;20041;-39
2022/05/16 02:26:33;;;;;;;3.85;2.05;;;11.60;99.90;;;;;;4161707;28;20266;-40
2022/05/16 02:28:35;;;;;;;3.10;2.88;;;11.70;99.90;;;;;;4161686;28;20046;-39
2022/05/16 02:30:38;;;;;;;3.10;3.00;;;11.50;99.90;;;;;;4161631;28;20129;-39
2022/05/16 02:32:40;;;;;;;2.88;2.78;;;11.50;99.90;;;;;;4161270;28;20045;-39
2022/05/16 02:34:44;;;;;;;;;;;11.60;99.90;;;;;;4161836;28;20045;-40
2022/05/16 02:36:47;;;;;;;2.55;2.35;;;11.70;99.90;;;;;;4161525;28;19925;-41
2022/05/16 02:38:49;;;;;;;3.47;2.70;;;11.80;99.90;;;;;;4161284;28;20049;-40
2022/05/16 02:40:51;;;;;;;3.13;2.85;;;11.80;99.90;;;;;;4161386;28;20037;-40
2022/05/16 02:42:53;;;;;;;5.60;3.08;;;11.80;99.90;;;;;;4161637;28;20349;-39
2022/05/16 02:44:55;;;;;;;4.00;3.70;;;11.60;99.90;;;;;;4161312;28;20493;-40
2022/05/16 02:46:58;;;;;;;3.05;2.95;;;11.50;99.90;;;;;;4161495;28;20037;-39
2022/05/16 02:49:00;;;;;;;2.88;2.45;;;11.50;99.90;;;;;;4161603;28;20049;-39
2022/05/16 02:51:02;;;;;;;3.53;3.28;;;11.50;99.90;;;;;;4161345;28;20132;-40
2022/05/16 02:53:07;;;;;;;2.55;2.35;;;11.40;99.90;;;;;;4161242;28;20145;-40
2022/05/16 02:55:09;;;;;;;2.38;2.25;;;11.50;99.90;;;;;;4161138;28;20041;-41
2022/05/16 02:57:12;;;;;;;3.03;2.83;;;11.40;99.90;;;;;;4160913;28;20470;-39
2022/05/16 02:59:15;;;;;;;;;;;11.30;99.90;;;;;;4161618;28;20497;-40
2022/05/16 03:01:17;;;;;;;3.13;2.90;;;11.30;99.90;;;;;;4160899;28;19925;-39
2022/05/16 03:03:19;;;;;;;3.13;2.80;;;11.10;99.90;;;;;;4159616;28;20506;-40
2022/05/16 03:05:21;;;;;;;3.58;3.28;;;10.90;99.90;;;;;;4161208;28;20049;-40
2022/05/16 03:07:24;;;;;;;3.10;2.85;;;10.80;99.90;;;;;;4160639;28;20048;-39
2022/05/16 03:09:27;;;;;;;3.40;3.03;;;10.80;99.90;;;;;;4160776;28;20042;-39
2022/05/16 03:11:30;;;;;;;3.97;3.00;;;10.60;99.90;;;;;;4160733;28;20091;-40
2022/05/16 03:13:32;;;;;;;3.63;3.47;;;10.50;99.90;;;;;;4159768;28;20041;-39
2022/05/16 03:15:34;;;;;;;;;;;10.50;99.90;;;;;;4161131;28;20037;-40
2022/05/16 03:17:37;;;;;;;3.42;3.10;;;10.50;99.90;;;;;;4160421;28;20126;-40
2022/05/16 03:19:40;;;;;;;3.83;3.53;;;10.50;99.90;;;;;;4159857;28;20034;-39
2022/05/16 03:21:42;;;;;;;;;;;10.50;99.90;;;;;;4161123;28;20045;-39
2022/05/16 03:23:44;;;;;;;3.38;3.28;;;10.60;99.90;;;;;;4160732;28;20019;-40
2022/05/16 03:25:47;;;;;;;4.82;4.55;;;10.70;99.90;;;;;;4160559;28;20041;-39
2022/05/16 03:27:49;;;;;;;3.58;3.45;;;10.80;99.90;;;;;;4161111;28;20041;-40
2022/05/16 03:29:51;;;;;;;3.78;3.55;;;10.80;99.90;;;;;;4160273;28;20115;-39
2022/05/16 03:31:56;;;;;;;3.35;3.10;;;10.80;99.90;;;;;;4160557;28;20432;-39
2022/05/16 03:33:58;;;;;;;3.15;2.75;;;10.80;99.90;;;;;;4160875;28;20049;-39
2022/05/16 03:36:00;;;;;;;5.63;3.30;;;10.80;99.90;;;;;;4160265;28;20464;-39
2022/05/16 03:38:03;;;;;;;3.90;3.70;;;10.80;99.90;;;;;;4160503;28;20033;-40
2022/05/16 03:42:26;;;;;;;2.75;2.65;;;10.80;99.90;;;;;;4160171;28;20456;-39
2022/05/16 03:44:29;;;;;;;3.65;3.03;;;10.60;99.90;;;;;;4160465;28;20049;-40
2022/05/16 03:46:31;;;;;;;4.45;4.05;;;10.70;99.90;;;;;;4158928;28;20080;-40
2022/05/16 03:48:34;;;;;;;3.70;3.60;;;10.70;99.90;;;;;;4160563;28;20124;-39
2022/05/16 03:50:36;;;;;;;7.03;4.47;;;10.50;99.90;;;;;;4160472;28;20605;-39
2022/05/16 03:52:40;;;;;;;3.72;3.53;;;10.60;99.90;;;;;;4144158;28;20501;-40
2022/05/16 03:54:42;;;;;;;4.13;3.75;;;10.80;99.90;;;;;;4151062;28;20095;-40
2022/05/16 03:56:44;;;;;;;3.88;3.58;;;10.90;99.90;;;;;;4160532;28;20041;-39
2022/05/16 03:58:47;;;;;;;6.38;5.05;;;10.80;99.90;;;;;;4160203;28;20025;-39
2022/05/16 04:00:49;;;;;;;3.70;2.90;;;10.80;99.90;;;;;;4160129;28;20040;-40
2022/05/16 04:02:52;;;;;;;3.35;3.15;;;10.70;99.90;;;;;;4160658;28;20073;-39
2022/05/16 04:04:54;;;;;;;3.58;3.28;;;10.60;99.90;;;;;;4160368;28;20076;-40
2022/05/16 04:06:56;;;;;;;3.38;3.13;;;10.60;99.90;;;;;;4158737;28;20525;-39
2022/05/16 04:08:59;;;;;;;4.10;3.00;;;10.60;99.90;;;;;;4160769;28;20049;-39
2022/05/16 04:11:03;;;;;;;2.95;2.85;;;10.40;99.90;;;;;;4160317;28;20107;-40
2022/05/16 04:13:05;;;;;;;5.43;4.13;;;10.30;99.90;;;;;;4159868;28;20107;-39
2022/05/16 04:15:09;;;;;;;6.07;4.00;;;10.20;99.90;;;;;;4159321;28;20144;-40
2022/05/16 04:17:12;;;;;;;3.67;3.50;;;10.00;99.90;;;;;;4159702;28;20049;-40
2022/05/16 04:19:14;;;;;;;3.63;3.50;;;10.00;99.90;;;;;;4160118;28;20053;-39
2022/05/16 04:21:16;;;;;;;2.92;2.70;;;9.90;99.90;;;;;;4158818;28;20490;-39
2022/05/16 04:23:18;;;;;;;6.80;4.20;;;9.90;99.90;;;;;;4160170;28;20132;-40
2022/05/16 04:25:21;;;;;;;3.30;3.20;;;9.90;99.90;;;;;;4160330;28;20116;-40
2022/05/16 04:27:28;;;;;;;3.35;3.05;;;9.90;99.90;;;;;;4145921;28;20136;-39
2022/05/16 04:29:30;;;;;;;2.92;2.70;;;10.00;99.90;;;;;;4143786;28;20053;-40
2022/05/16 04:31:32;;;;;;;3.72;3.28;;;10.10;99.90;;;;;;4146388;28;20041;-39
2022/05/16 04:33:35;;;;;;;3.83;3.08;;;10.20;99.90;;;;;;4158507;28;20095;-40
2022/05/16 04:35:37;;;;;;;;;;;10.30;99.90;;;;;;4152481;28;20544;-40
2022/05/16 04:37:39;;;;;;;3.75;3.15;;;10.40;99.90;;;;;;4163215;28;19925;-40
2022/05/16 04:39:41;;;;;;;2.92;2.72;;;10.50;99.90;;;;;;4162729;28;20475;-39
2022/05/16 04:44:05;;;;;;;4.82;3.60;;;10.60;99.90;;;;;;4163760;28;20040;-39
2022/05/16 04:46:07;;;;;;;3.55;3.35;;;10.50;99.90;;;;;;4162942;28;20046;-39
2022/05/16 04:48:10;;;;;;;4.88;3.75;;;10.40;99.90;;;;;;4163229;28;20125;-39
2022/05/16 04:50:15;;;;;;;4.40;3.95;;;10.30;99.90;;;;;;4163319;28;20044;-39
2022/05/16 04:52:17;;;;;;;4.20;3.75;;;10.20;99.90;;;;;;4162875;28;20111;-40
2022/05/16 04:54:19;;;;;;;3.40;3.10;;;10.30;99.90;;;;;;4163281;28;20041;-39
2022/05/16 04:56:22;;;;;;;;;;;10.30;99.90;;;;;;4163270;28;20616;-39
2022/05/16 04:58:24;;;;;;;3.53;2.97;;;10.20;99.90;;;;;;4162780;28;19925;-39
2022/05/16 05:00:27;;;;;;;5.57;3.25;;;10.20;99.90;;;;;;4161937;28;20057;-39
2022/05/16 05:02:29;;;;;;;3.90;3.60;;;10.30;99.90;;;;;;4162940;28;20041;-40
2022/05/16 05:04:31;;;;;;;7.28;3.47;;;10.30;99.90;;;;;;4162760;28;20034;-39
2022/05/16 05:06:34;;;;;;;4.72;4.32;;;10.30;99.90;;;;;;4163029;28;20489;-39
2022/05/16 05:08:36;;;;;;;;;;;10.50;99.90;;;;;;4163208;28;20049;-39
2022/05/16 05:15:20;;;;;;;3.17;2.97;;;10.80;99.90;;;;;;4160996;28;20146;-39
2022/05/16 05:17:23;;;;;;;3.58;3.28;;;10.80;99.90;;;;;;4162071;28;20051;-39
2022/05/16 05:19:26;;;;;;;3.00;2.67;;;10.90;99.90;;;;;;4160513;28;20131;-39
2022/05/16 05:21:29;;;;;;;;;;;10.90;99.90;;;;;;4154595;28;20037;-40
2022/05/16 05:23:34;;;;;;;2.83;2.63;;;11.10;99.90;;;;;;4149848;28;19960;-40
2022/05/16 05:25:37;;;;;;;2.53;2.38;;;11.10;99.90;;;;;;4162541;28;20045;-39
2022/05/16 05:27:40;;;;;;;3.13;1.90;;;11.30;99.90;;;;;;4162503;28;20059;-39
2022/05/16 05:29:42;;;;;;;4.30;3.40;;;11.40;99.90;;;;;;4162412;28;20045;-43
2022/05/16 05:31:44;;;;;;;11.50;3.33;;;11.50;99.90;;;;;;4162577;28;20071;-43
2022/05/16 05:33:49;;;;;;;4.05;2.80;;;11.60;99.90;;;;;;4162121;28;20054;-44
2022/05/16 05:35:51;;;;;;;2.95;2.65;;;11.90;99.90;;;;;;4162608;28;20486;-45
2022/05/16 05:37:55;;;;;;;2.42;2.22;;;12.00;99.90;;;;;;4162344;28;20045;-43
2022/05/16 05:40:00;;;;;;;4.10;2.30;;;12.30;99.90;;;;;;4162027;28;20049;-45
2022/05/16 05:42:02;;;;;;;6.25;2.60;;;12.40;99.90;;;;;;4161357;28;20030;-44
2022/05/16 05:44:05;;;;;;;3.63;3.33;;;12.50;99.90;;;;;;4162449;28;20485;-44
2022/05/16 05:46:08;;;;;;;2.55;2.35;;;12.60;99.90;;;;;;4162195;28;20041;-43
2022/05/16 05:48:10;;;;;;;2.80;2.58;;;12.60;99.90;;;;;;4162247;28;20049;-45
2022/05/16 05:50:13;;;;;;;3.60;2.83;;;12.70;99.90;;;;;;4162151;28;20276;-44
2022/05/16 05:52:18;;;;;;;3.47;2.72;;;12.80;99.90;;;;;;4160649;28;20521;-43
2022/05/16 05:54:20;;;;;;;2.15;2.05;;;13.00;99.90;;;;;;4162468;28;20041;-44
2022/05/16 05:56:22;;;;;;;2.92;2.78;;;13.20;99.90;;;;;;4162111;28;20037;-43
2022/05/16 05:58:24;;;;;;;3.92;2.80;;;13.50;99.90;;;;;;4161825;28;20052;-43
2022/05/16 06:00:27;;;;;;;6.88;2.15;;;13.70;99.90;;;;;;4162110;28;20037;-45
2022/05/16 06:02:31;;;;;;;2.35;2.15;;;13.70;99.90;;;;;;4162117;28;20083;-44
2022/05/16 06:04:33;;;;;;;3.22;1.88;;;13.80;99.90;;;;;;4161747;28;20519;-45
2022/05/16 06:06:37;;;;;;;2.05;1.90;;;14.00;99.90;;;;;;4162036;28;20131;-43
2022/05/16 06:08:40;;;;;;;1.63;1.60;;;14.20;99.90;;;;;;4161713;28;20445;-44
2022/05/16 06:10:46;;;;;;;1.80;1.70;;;14.30;99.90;;;;;;4161893;28;20068;-46
2022/05/16 06:12:48;;;;;;;4.97;2.55;;;14.40;99.90;;;;;;4155410;28;20045;-44
2022/05/16 06:14:50;;;;;;;;;;;14.70;99.90;;;;;;4161934;28;20145;-44
2022/05/16 06:16:53;;;;;;;3.50;2.55;;;14.90;99.90;;;;;;4161192;28;19928;-43
2022/05/16 06:18:55;;;;;;;3.28;1.88;;;15.10;99.90;;;;;;4145211;28;20518;-44
2022/05/16 06:20:57;;;;;;;4.07;1.77;;;15.30;99.90;;;;;;4145400;28;20048;-45
2022/05/16 06:23:00;;;;;;;3.08;2.92;;;15.50;99.90;;;;;;4145442;28;20560;-45
2022/05/16 06:25:31;;;;;;;1.55;1.45;;;15.70;99.90;;;;;;4145226;28;20107;-47
2022/05/16 06:27:33;;;;;;;4.78;1.55;;;16.00;99.90;;;;;;4145331;28;20623;-44
2022/05/16 06:29:35;;;;;;;4.32;1.30;;;16.20;99.90;;;;;;4145125;28;20076;-44
2022/05/16 06:31:37;;;;;;;1.63;1.23;;;16.50;99.90;;;;;;4145236;28;20045;-45
2022/05/16 06:33:40;;;;;;;2.92;2.15;;;16.80;99.90;;;;;;4145024;28;20150;-46
2022/05/16 06:35:42;;;;;;;1.98;1.02;;;17.00;99.90;;;;;;4145267;28;20049;-46
2022/05/16 06:37:51;;;;;;;2.78;1.20;;;17.30;99.90;;;;;;4145034;28;20037;-44
2022/05/16 06:39:56;;;;;;;1.55;0.90;;;17.30;99.90;;;;;;4144999;28;20120;-44
2022/05/16 06:42:00;;;;;;;1.10;1.00;;;17.40;99.90;;;;;;4145274;28;20449;-45
2022/05/16 06:44:03;;;;;;;2.63;1.15;;;17.50;99.90;;;;;;4154896;28;20034;-44
2022/05/16 06:46:05;;;;;;;2.88;1.60;;;17.80;99.90;;;;;;4161723;28;20040;-43
2022/05/16 06:48:08;;;;;;;3.38;0.90;;;17.90;99.90;;;;;;4159749;28;20059;-45
2022/05/16 06:50:11;;;;;;;1.85;0.90;;;18.10;99.90;;;;;;4161108;28;20560;-45
2022/05/16 06:52:16;;;;;;;1.52;1.30;;;18.40;99.90;;;;;;4160999;28;20125;-44
2022/05/16 06:54:18;;;;;;;3.15;1.50;;;18.60;99.90;;;;;;4161077;28;20057;-45
2022/05/16 06:56:20;;;;;;;1.35;0.90;;;18.80;99.90;;;;;;4161232;28;20045;-44
2022/05/16 06:58:22;;;;;;;4.97;1.10;;;19.10;99.90;;;;;;4159814;28;20044;-45
2022/05/16 07:00:26;;;;;;;;;;;19.10;99.90;;;;;;4161609;28;20489;-44
2022/05/16 07:02:28;;;;;;;2.33;1.00;;;19.30;99.90;;;;;;4160770;28;19925;-47
2022/05/16 07:04:31;;;;;;;1.58;1.00;;;19.60;99.90;;;;;;4157124;28;20368;-46
2022/05/16 07:06:33;;;;;;;0.98;0.90;;;19.80;99.90;;;;;;4144596;28;20056;-45
2022/05/16 07:08:35;;;;;;;0.80;0.80;;;19.80;99.90;;;;;;4158223;28;20038;-44
2022/05/16 07:10:38;;;;;;;2.03;1.02;;;19.90;99.90;;;;;;4159194;28;20038;-45
2022/05/16 07:12:40;;;;;;;;;;;20.10;99.90;;;;;;4160538;28;20079;-45
2022/05/16 07:14:42;;;;;;;1.73;0.93;;;20.30;99.90;;;;;;4152044;28;20395;-44
2022/05/16 07:16:44;;;;;;;2.25;1.23;;;20.60;99.90;;;;;;4143664;28;20073;-44
2022/05/16 07:18:46;;;;;;;2.47;0.90;;;20.90;99.90;;;;;;4160089;28;20489;-44
2022/05/16 07:20:49;;;;;;;1.45;0.90;;;21.00;99.90;;;;;;4160518;28;20045;-44
2022/05/16 07:22:51;;;;;;;2.28;1.10;;;21.00;99.90;;;;;;4160958;28;20056;-44
2022/05/16 07:24:55;;;;;;;2.60;0.90;;;21.00;99.90;;;;;;4160704;28;20076;-47
2022/05/16 07:29:22;;;;;;;3.70;0.90;;;21.00;99.90;;;;;;4160726;28;20046;-44
2022/05/16 07:31:25;;;;;;;1.80;0.75;;;21.20;99.90;;;;;;4160284;28;20409;-45
2022/05/16 07:33:27;;;;;;;2.05;1.02;;;21.50;99.90;;;;;;4160572;28;20076;-48
2022/05/16 07:35:33;;;;;;;1.70;0.70;;;21.50;99.90;;;;;;4160539;28;20136;-45
2022/05/16 07:37:35;;;;;;;0.85;0.70;;;21.60;99.90;;;;;;4160590;28;20099;-46
2022/05/16 07:39:38;;;;;;;1.65;0.70;;;21.40;99.90;;;;;;4160237;28;20041;-46
2022/05/16 07:41:40;;;;;;;3.03;0.82;;;21.40;99.90;;;;;;4160474;28;20034;-45
2022/05/16 07:43:42;;;;;;;3.13;0.80;;;21.50;99.90;;;;;;4160390;28;20052;-45
2022/05/16 07:45:45;;;;;;;;;;;22.10;99.90;;;;;;4161114;28;20033;-44
2022/05/16 07:47:48;;;;;;;1.70;0.80;;;22.60;99.90;;;;;;4160524;28;20385;-46
2022/05/16 07:49:57;;;;;;;3.13;0.80;;;22.90;99.90;;;;;;4160314;28;20052;-45
2022/05/16 07:51:59;;;;;;;3.78;1.08;;;23.20;99.90;;;;;;4160262;28;20083;-45
2022/05/16 07:54:02;;;;;;;2.28;0.90;;;23.80;99.90;;;;;;4160528;28;20045;-45
2022/05/16 07:56:04;;;;;;;1.55;0.70;;;23.90;99.90;;;;;;4160561;28;20490;-46
2022/05/16 07:58:07;;;;;;;1.08;0.70;;;24.10;99.90;;;;;;4160832;28;20042;-48
2022/05/16 08:00:13;;;;;;;4.45;0.70;;;24.10;99.90;;;;;;4160314;28;20445;-46
2022/05/16 08:02:16;;;;;;;1.40;0.80;;;24.40;99.10;;;;;;4160877;28;20033;-45
2022/05/16 08:04:18;;;;;;;;;;;24.50;99.60;;;;;;4161150;28;20560;-45
2022/05/16 08:06:20;;;;;;;2.38;0.80;;;24.60;99.00;;;;;;4159921;28;20007;-46
2022/05/16 08:10:47;;;;;;;3.90;0.70;;;23.50;98.90;;;;;;4160396;28;20509;-44
2022/05/16 08:12:49;;;;;;;10.05;0.70;;;23.50;99.90;;;;;;4160068;28;20136;-45
2022/05/16 08:14:53;;;;;;;1.33;0.70;;;23.70;99.50;;;;;;4160770;28;20041;-45
2022/05/16 08:16:56;;;;;;;10.15;1.00;;;23.90;99.60;;;;;;4160182;28;20041;-45
2022/05/16 08:18:59;;;;;;;1.67;0.70;;;24.00;99.10;;;;;;4160055;28;20076;-45
2022/05/16 08:21:03;;;;;;;0.57;0.57;;;23.90;98.40;;;;;;4155324;28;20121;-46
2022/05/16 08:23:05;;;;;;;0.80;0.80;;;23.90;97.00;;;;;;4144044;28;20092;-46
2022/05/16 08:25:08;;;;;;;3.35;0.60;;;23.70;96.50;;;;;;4155076;28;20095;-44
2022/05/16 08:27:11;;;;;;;2.50;0.50;;;23.70;98.00;;;;;;4160091;28;20555;-48
2022/05/16 08:29:13;;;;;;;1.23;0.70;;;23.90;97.80;;;;;;4160248;28;20117;-47
2022/05/16 08:31:15;;;;;;;;;;;24.30;97.90;;;;;;4160355;28;20048;-45
2022/05/16 08:33:18;;;;;;;4.07;0.65;;;23.90;97.90;;;;;;4160341;28;19932;-47
2022/05/16 08:35:23;;;;;;;2.88;0.60;;;24.30;98.80;;;;;;4160360;28;20044;-45
2022/05/16 08:39:52;;;;;;;1.55;0.60;;;24.40;98.90;;;;;;4159392;28;20154;-46
2022/05/16 08:41:59;;;;;;;2.58;1.17;;;24.10;98.00;;;;;;4160255;28;20042;-45
2022/05/16 08:44:14;;;;;;;3.33;0.60;;;23.80;98.30;;;;;;4159770;28;20038;-46
2022/05/16 08:46:34;;;;;;;0.60;0.60;;;23.70;98.30;;;;;;4160032;28;20034;-45
2022/05/16 08:48:49;;;;;;;1.90;0.60;;;23.90;99.10;;;;;;4160133;28;20462;-45
2022/05/16 08:51:30;;;;;;;2.78;0.98;;;24.50;99.90;;;;;;4159857;28;20045;-46
2022/05/16 08:53:44;;;;;;;0.73;0.60;;;24.80;98.40;;;;;;4160062;28;20046;-47
2022/05/16 08:55:52;;;;;;;0.60;0.60;;;24.90;98.50;;;;;;4159937;28;20041;-46
2022/05/16 08:58:02;;;;;;;2.28;0.70;;;24.90;97.10;;;;;;4160411;28;20276;-45
2022/05/16 09:00:21;;;;;;;1.05;0.50;;;24.40;96.50;;;;;;4149239;28;20089;-46
2022/05/16 09:02:25;;;;;;;1.35;0.60;;;24.40;97.40;;;;;;4146330;28;20049;-47
2022/05/16 09:04:38;;;;;;;4.05;0.50;;;24.90;98.10;;;;;;4160247;28;20440;-46
2022/05/16 09:06:56;;;;;;;2.80;0.55;;;25.20;95.50;;;;;;4158457;28;20049;-45
2022/05/16 09:09:16;;;;;;;1.77;0.60;;;25.30;95.80;;;;;;4146301;28;20029;-45
2022/05/16 09:11:34;;;;;;;1.02;0.50;;;25.40;95.20;;;;;;4153847;28;20111;-47
2022/05/16 09:13:57;;;;;;;3.35;0.77;;;25.20;97.70;;;;;;4156684;28;20493;-46
2022/05/16 09:16:24;;;;;;;;;;;25.30;95.90;;;;;;4156409;28;20075;-46
2022/05/16 09:18:48;;;;;;;1.17;0.70;;;24.80;95.00;;;;;;4161491;28;19944;-48
2022/05/16 09:21:03;;;;;;;1.65;0.60;;;24.90;96.50;;;;;;4162976;28;20080;-45
2022/05/16 09:23:30;;;;;;;3.47;1.02;;;24.70;95.20;;;;;;4162442;28;20041;-46
2022/05/16 09:26:00;;;;;;;1.58;0.70;;;24.90;95.10;;;;;;4161738;28;20072;-46
2022/05/16 09:30:28;;;;;;;0.88;0.70;;;24.70;95.40;;;;;;4162944;28;20041;-47
2022/05/16 09:32:36;;;;;;;0.60;0.60;;;25.10;94.90;;;;;;4159273;28;20076;-46
2022/05/16 09:34:39;;;;;;;2.05;0.50;;;24.80;96.20;;;;;;4157887;28;20124;-46
2022/05/16 09:36:49;;;;;;;1.95;0.63;;;24.90;95.80;;;;;;4162441;28;20579;-46
2022/05/16 09:38:52;;;;;;;1.85;0.68;;;25.40;97.30;;;;;;4156117;28;20053;-48
2022/05/16 09:41:35;;;;;;;2.05;0.70;;;25.80;95.00;;;;;;4150273;28;20471;-46
2022/05/16 09:43:50;;;;;;;2.88;0.63;;;25.70;95.90;;;;;;4162472;28;20535;-46
2022/05/16 09:46:12;;;;;;;1.00;0.70;;;25.70;96.30;;;;;;4162872;28;20041;-46
2022/05/16 09:48:21;;;;;;;0.75;0.60;;;25.80;96.10;;;;;;4162281;28;20063;-45
2022/05/16 09:50:28;;;;;;;1.67;1.02;;;25.40;95.70;;;;;;4162350;28;20460;-46
2022/05/16 09:52:33;;;;;;;5.15;0.60;;;25.50;95.60;;;;;;4162292;28;20467;-47
2022/05/16 09:54:37;;;;;;;2.75;0.60;;;25.40;95.30;;;;;;4162338;28;20080;-47
2022/05/16 09:56:54;;;;;;;1.90;0.60;;;24.90;95.50;;;;;;4161947;28;20513;-49
2022/05/16 09:59:00;;;;;;;1.85;0.70;;;24.80;96.40;;;;;;4160853;28;20048;-45
2022/05/16 10:01:06;;;;;;;4.25;0.50;;;25.30;96.50;;;;;;4162134;28;20037;-46
2022/05/16 10:03:28;;;;;;;2.55;0.60;;;25.20;93.60;;;;;;4160193;28;20052;-46
2022/05/16 10:05:31;;;;;;;;;;;25.10;93.40;;;;;;4162620;28;20072;-47
2022/05/16 10:07:47;;;;;;;1.95;0.50;;;25.60;96.10;;;;;;4151163;28;20024;-49
2022/05/16 10:09:52;;;;;;;3.17;0.60;;;26.10;94.60;;;;;;4160502;28;20080;-47
2022/05/16 10:11:55;;;;;;;1.60;0.60;;;26.30;94.80;;;;;;4162096;28;20095;-46
2022/05/16 10:13:57;;;;;;;1.77;0.50;;;26.00;93.20;;;;;;4161645;28;20122;-46
2022/05/16 10:16:03;;;;;;;1.73;1.02;;;25.90;94.00;;;;;;4157591;28;20042;-46
2022/05/16 10:18:10;;;;;;;2.15;0.60;;;25.70;92.70;;;;;;4154853;28;20116;-46
2022/05/16 10:20:34;;;;;;;8.95;0.90;;;25.50;92.80;;;;;;4161860;28;20068;-49
2022/05/16 10:22:37;;;;;;;2.30;0.60;;;26.20;92.70;;;;;;4161512;28;20047;-46
2022/05/16 10:25:00;;;;;;;0.68;0.50;;;26.50;90.90;;;;;;4161945;28;20037;-49
2022/05/16 10:27:07;;;;;;;1.88;0.60;;;25.70;93.60;;;;;;4162002;28;20440;-46
2022/05/16 10:29:12;;;;;;;1.73;0.52;;;26.30;92.90;;;;;;4161100;28;20045;-45
2022/05/16 10:33:47;;;;;;;3.92;0.50;;;26.50;90.70;;;;;;4157206;28;20152;-47
2022/05/16 10:36:00;;;;;;;1.50;0.50;;;26.70;88.10;;;;;;4159558;28;20124;-46
2022/05/16 10:38:38;;;;;;;5.45;0.52;;;26.30;89.30;;;;;;4158854;28;20045;-46
2022/05/16 10:40:45;;;;;;;2.97;0.63;;;26.70;89.40;;;;;;4133073;28;20501;-46
2022/05/16 10:43:00;;;;;;;2.72;0.40;;;27.00;90.30;;;;;;4140786;28;20050;-47
2022/05/16 10:45:12;;;;;;;0.73;0.40;;;27.20;89.10;;;;;;4141218;28;20064;-47
2022/05/16 10:47:31;;;;;;;1.30;0.40;;;27.40;89.00;;;;;;4142528;28;20044;-49
2022/05/16 10:49:38;;;;;;;0.85;0.50;;;27.00;84.10;;;;;;4135631;28;20069;-50
2022/05/16 10:51:56;;;;;;;3.35;0.40;;;27.10;83.50;;;;;;4142255;28;20651;-46
2022/05/16 10:54:07;;;;;;;3.25;0.60;;;26.70;85.10;;;;;;4142551;28;20042;-50
2022/05/16 10:56:42;;;;;;;0.50;0.40;;;26.20;83.30;;;;;;4135540;28;20129;-47
2022/05/16 10:59:02;;;;;;;3.60;0.40;;;26.30;82.80;;;;;;4136859;28;20053;-46
2022/05/16 11:01:21;;;;;;;0.93;0.40;;;26.40;86.50;;;;;;4141338;28;20046;-46
2022/05/16 11:03:29;;;;;;;0.90;0.50;;;26.30;78.40;;;;;;4141747;28;20558;-48
2022/05/16 11:05:42;;;;;;;1.10;0.40;;;25.80;78.20;;;;;;4135265;28;20088;-47
2022/05/16 11:07:55;;;;;;;0.57;0.40;;;26.20;80.90;;;;;;4142201;28;20077;-47
2022/05/16 11:10:16;;;;;;;1.42;0.88;;;26.60;83.50;;;;;;4142186;28;20501;-48
2022/05/16 11:12:27;;;;;;;;;;;26.30;82.00;;;;;;4141887;28;20057;-49
2022/05/16 11:14:51;;;;;;;0.50;0.40;;;26.30;79.20;;;;;;4142432;28;20374;-49
2022/05/16 11:17:01;;;;;;;1.77;0.40;;;26.50;80.40;;;;;;4142039;28;20420;-47
2022/05/16 11:19:18;;;;;;;0.30;0.30;;;26.60;79.80;;;;;;4142718;28;20647;-48
2022/05/16 11:21:37;;;;;;;0.40;0.40;;;26.80;74.80;;;;;;4136814;28;20155;-49
2022/05/16 11:24:12;;;;;;;2.53;0.30;;;26.50;70.60;;;;;;4140008;28;20034;-48
2022/05/16 11:26:26;;;;;;;0.60;0.40;;;26.60;69.70;;;;;;4113295;28;20133;-49
2022/05/16 11:31:20;;;;;;;2.20;0.40;;;26.70;72.90;;;;;;4127938;28;20381;-48